Time;durP1;ratioP1;P1;durP2;ratioP2;P2;SDS_P1;SDS_P2;PMS_P1;PMS_P2;Temp;Humidity;BMP_temperature;BMP_pressure;BME280_temperature;BME280_humidity;BME280_pressure;Samples;Min_cycle;Max_cycle;Signal;HPM_P1;HPM_P2
2023/02/17 00:00:21;;;;;;;19.30;15.27;;;;;;;9.22;53.66;97077.34;4970558;28;20201;-69
2023/02/17 00:02:46;;;;;;;20.57;14.57;;;;;;;9.15;53.79;97079.28;4970698;28;20177;-71
2023/02/17 00:05:12;;;;;;;22.37;15.87;;;;;;;9.02;55.13;97081.34;4970700;28;20173;-71
2023/02/17 00:07:38;;;;;;;24.50;17.60;;;;;;;9.07;54.75;97074.25;4970267;28;20182;-69
2023/02/17 00:10:03;;;;;;;24.83;16.53;;;;;;;9.10;54.33;97073.31;4970561;28;20272;-69
2023/02/17 00:12:29;;;;;;;21.17;17.27;;;;;;;9.04;54.96;97083.94;4970857;28;20204;-68
2023/02/17 00:14:54;;;;;;;19.53;14.07;;;;;;;9.03;54.84;97077.84;4970402;28;20197;-70
2023/02/17 00:17:20;;;;;;;20.07;14.70;;;;;;;8.87;55.12;97081.78;4969352;28;20170;-70
2023/02/17 00:19:45;;;;;;;17.60;14.53;;;;;;;8.69;55.16;97070.00;4970037;28;20264;-69
2023/02/17 00:22:10;;;;;;;20.43;14.80;;;;;;;8.84;54.93;97069.63;4970348;28;20181;-70
2023/02/17 00:24:38;;;;;;;21.80;15.57;;;;;;;8.88;55.79;97067.78;4970280;28;20733;-70
2023/02/17 00:27:04;;;;;;;22.40;15.73;;;;;;;8.94;54.63;97069.38;4969983;28;20256;-69
2023/02/17 00:29:30;;;;;;;20.97;15.77;;;;;;;9.02;54.18;97067.41;4970164;28;20517;-69
2023/02/17 00:31:55;;;;;;;20.93;15.17;;;;;;;8.78;54.89;97076.78;4951101;28;20497;-69
2023/02/17 00:34:21;;;;;;;22.47;15.53;;;;;;;8.85;55.22;97076.56;4950806;29;20290;-68
2023/02/17 00:36:46;;;;;;;21.63;13.90;;;;;;;8.98;54.51;97077.13;4950841;29;20178;-71
2023/02/17 00:39:14;;;;;;;19.70;15.13;;;;;;;9.05;55.03;97077.81;4951088;28;20296;-69
2023/02/17 00:41:40;;;;;;;22.20;14.60;;;;;;;9.02;55.27;97080.50;4950860;28;20178;-67
2023/02/17 00:44:06;;;;;;;15.97;12.90;;;;;;;9.04;54.11;97071.69;4951006;29;20463;-68
2023/02/17 00:46:31;;;;;;;19.40;15.87;;;;;;;9.09;54.68;97074.19;4965431;28;21281;-70
2023/02/17 00:48:57;;;;;;;19.33;15.30;;;;;;;9.09;54.04;97064.59;4949880;28;20442;-69
2023/02/17 00:51:23;;;;;;;23.40;14.13;;;;;;;9.04;53.97;97071.69;4950407;29;20259;-68
2023/02/17 00:53:49;;;;;;;19.37;15.67;;;;;;;9.12;53.91;97071.50;4950370;28;20600;-69
2023/02/17 00:56:15;;;;;;;18.67;16.10;;;;;;;9.03;53.99;97070.00;4950148;29;20442;-69
2023/02/17 00:58:41;;;;;;;21.70;14.80;;;;;;;9.11;54.52;97067.16;4950310;29;20815;-69
2023/02/17 01:01:07;;;;;;;23.90;13.97;;;;;;;9.20;53.60;97072.16;4950421;28;20181;-68
2023/02/17 01:03:33;;;;;;;20.93;14.40;;;;;;;9.11;53.51;97077.63;4950096;29;20206;-69
2023/02/17 01:05:59;;;;;;;20.07;13.87;;;;;;;9.19;53.09;97077.41;4949895;29;20714;-67
2023/02/17 01:08:24;;;;;;;23.50;14.33;;;;;;;9.16;53.50;97074.88;4950118;28;20182;-68
2023/02/17 01:10:51;;;;;;;27.87;15.83;;;;;;;9.17;53.09;97074.84;4950214;28;20174;-69
2023/02/17 01:13:17;;;;;;;23.90;15.10;;;;;;;9.18;53.66;97081.81;4950138;29;20170;-72
2023/02/17 01:15:49;;;;;;;25.97;15.20;;;;;;;9.19;53.69;97077.41;4950191;28;20753;-71
2023/02/17 01:18:17;;;;;;;23.43;16.00;;;;;;;9.14;53.83;97074.91;4950150;28;20409;-70
2023/02/17 01:20:43;;;;;;;30.67;15.90;;;;;;;9.10;53.39;97078.56;4950400;29;20446;-68
2023/02/17 01:23:10;;;;;;;17.73;13.50;;;;;;;9.13;53.65;97073.22;4950083;28;20933;-69
2023/02/17 01:25:40;;;;;;;20.83;13.57;;;;;;;9.09;53.63;97066.34;4949874;28;20579;-69
2023/02/17 01:28:06;;;;;;;21.37;14.57;;;;;;;9.17;52.87;97064.38;4949800;28;20860;-67
2023/02/17 01:30:32;;;;;;;18.87;16.30;;;;;;;9.10;53.13;97063.69;4957809;28;20433;-70
2023/02/17 01:32:57;;;;;;;18.50;14.77;;;;;;;9.10;54.10;97065.47;4969185;28;20416;-68
2023/02/17 01:35:22;;;;;;;16.40;13.10;;;;;;;9.09;53.79;97069.84;4969009;28;20186;-69
2023/02/17 01:37:48;;;;;;;19.53;13.90;;;;;;;9.07;53.69;97069.03;4968965;28;20185;-68
2023/02/17 01:40:15;;;;;;;17.97;12.67;;;;;;;9.00;53.39;97059.63;4969275;28;20204;-67
2023/02/17 01:42:40;;;;;;;24.40;13.33;;;;;;;8.99;53.79;97064.88;4967816;28;20180;-67
2023/02/17 01:45:18;;;;;;;22.87;16.63;;;;;;;8.99;53.82;97057.03;4969091;28;20456;-68
2023/02/17 01:47:47;;;;;;;21.03;13.73;;;;;;;9.00;53.39;97057.00;4967992;28;20382;-71
2023/02/17 01:50:14;;;;;;;20.70;13.10;;;;;;;9.08;53.36;97041.94;4968849;28;20491;-70
2023/02/17 01:52:42;;;;;;;18.70;13.00;;;;;;;9.10;53.06;97047.97;4967595;28;20426;-70
2023/02/17 01:55:12;;;;;;;19.60;14.90;;;;;;;9.07;53.33;97040.22;4969033;28;20416;-70
2023/02/17 01:57:40;;;;;;;17.10;12.50;;;;;;;9.12;53.85;97037.47;4968636;28;20507;-71
2023/02/17 02:00:10;;;;;;;21.30;12.53;;;;;;;9.07;52.90;97040.22;4968678;28;20429;-68
2023/02/17 02:02:37;;;;;;;18.23;13.33;;;;;;;9.20;53.34;97040.72;4968666;28;20484;-67
2023/02/17 02:05:02;;;;;;;20.13;13.20;;;;;;;9.11;53.38;97041.81;4968541;28;20916;-69
2023/02/17 02:07:32;;;;;;;25.90;14.03;;;;;;;9.07;53.38;97034.09;4968265;28;21052;-69
2023/02/17 02:09:59;;;;;;;19.63;12.97;;;;;;;9.06;52.67;97035.88;4983306;28;20204;-68
2023/02/17 02:12:31;;;;;;;19.03;13.30;;;;;;;9.13;53.05;97025.25;4968398;28;20500;-69
2023/02/17 02:15:00;;;;;;;18.63;13.17;;;;;;;9.09;53.15;97034.91;4968455;28;20412;-70
2023/02/17 02:17:39;;;;;;;17.70;12.77;;;;;;;9.11;52.35;97023.50;4968367;28;20756;-68
2023/02/17 02:20:16;;;;;;;16.83;12.50;;;;;;;9.05;53.34;97028.06;4968583;28;20440;-67
2023/02/17 02:23:03;;;;;;;15.47;12.30;;;;;;;9.02;53.22;97020.28;4968647;28;21018;-69
2023/02/17 02:25:41;;;;;;;19.37;11.87;;;;;;;9.00;52.82;97014.22;4968701;28;20538;-67
2023/02/17 02:28:31;;;;;;;15.50;12.83;;;;;;;9.03;52.35;97016.78;4972690;28;20427;-72
2023/02/17 02:31:50;;;;;;;17.63;12.37;;;;;;;9.14;52.23;97016.47;4978704;28;20973;-70
2023/02/17 02:34:44;;;;;;;19.77;13.53;;;;;;;9.11;52.09;97014.78;4978559;28;20401;-68
2023/02/17 02:37:19;;;;;;;23.43;13.50;;;;;;;9.04;52.43;97014.09;4971957;28;20436;-69
2023/02/17 02:39:49;;;;;;;17.50;12.73;;;;;;;8.99;53.08;97007.28;4981191;28;20440;-70
2023/02/17 02:42:18;;;;;;;18.77;13.10;;;;;;;9.04;52.14;97008.88;4983429;28;20413;-70
2023/02/17 02:44:43;;;;;;;16.47;12.87;;;;;;;9.03;53.21;96995.84;4984152;28;20510;-70
2023/02/17 02:47:33;;;;;;;16.73;11.90;;;;;;;9.06;53.13;97000.97;4981253;28;20413;-69
2023/02/17 02:49:59;;;;;;;17.83;14.80;;;;;;;9.02;53.01;97000.19;4972057;28;20252;-69
2023/02/17 02:52:44;;;;;;;16.67;13.00;;;;;;;9.08;52.46;96994.78;4971984;28;20417;-70
2023/02/17 02:55:25;;;;;;;19.87;12.73;;;;;;;9.05;52.77;96984.41;4972042;28;20743;-69
2023/02/17 02:58:04;;;;;;;19.03;13.03;;;;;;;8.95;52.98;96985.56;4971621;28;20456;-69
2023/02/17 03:00:41;;;;;;;16.57;11.90;;;;;;;8.98;52.42;96984.66;4971897;28;20523;-67
2023/02/17 03:03:36;;;;;;;23.10;12.50;;;;;;;8.99;52.74;96984.59;4971825;28;20487;-70
2023/02/17 03:06:25;;;;;;;18.43;12.33;;;;;;;8.95;53.22;96977.72;4971455;28;20417;-70
2023/02/17 03:09:02;;;;;;;17.60;13.13;;;;;;;9.00;53.19;96980.19;4971423;28;20779;-68
2023/02/17 03:11:31;;;;;;;22.17;12.90;;;;;;;9.01;52.80;96981.94;4971487;28;20499;-69
2023/02/17 03:14:14;;;;;;;21.67;16.90;;;;;;;8.96;52.89;96984.69;4971299;28;20495;-69
2023/02/17 03:16:41;;;;;;;21.63;13.43;;;;;;;8.93;52.94;96982.16;4971219;28;20416;-67
2023/02/17 03:19:09;;;;;;;14.80;12.97;;;;;;;8.93;52.67;96986.50;4971527;28;20428;-67
2023/02/17 03:21:40;;;;;;;18.13;12.60;;;;;;;8.83;53.02;96980.66;4971420;28;20404;-68
2023/02/17 03:24:06;;;;;;;18.60;12.50;;;;;;;8.84;53.68;96991.09;4971259;28;20474;-67
2023/02/17 03:26:32;;;;;;;16.70;12.50;;;;;;;8.93;52.90;96992.63;4970933;28;20412;-69
2023/02/17 03:28:58;;;;;;;18.87;12.40;;;;;;;8.96;52.51;96995.16;4971097;28;20436;-68
2023/02/17 03:31:23;;;;;;;24.07;14.60;;;;;;;8.76;53.18;96987.81;4971010;28;20734;-71
2023/02/17 03:33:49;;;;;;;18.57;12.70;;;;;;;8.80;53.15;96984.25;4971354;28;20548;-68
2023/02/17 03:36:14;;;;;;;17.10;13.40;;;;;;;8.78;53.26;96985.19;4970999;28;20558;-69
2023/02/17 03:38:40;;;;;;;23.37;13.50;;;;;;;8.82;52.78;96987.69;4970870;28;20212;-70
2023/02/17 03:41:05;;;;;;;18.63;13.00;;;;;;;8.77;53.58;96986.94;4971022;28;20182;-68
2023/02/17 03:43:30;;;;;;;20.87;13.07;;;;;;;8.86;52.67;96983.22;4971258;28;20244;-68
2023/02/17 03:45:56;;;;;;;17.17;13.30;;;;;;;8.88;52.59;96994.47;4970794;28;20189;-68
2023/02/17 03:48:21;;;;;;;18.77;12.87;;;;;;;8.84;53.55;96985.88;4971161;28;20181;-69
2023/02/17 03:50:47;;;;;;;21.67;13.77;;;;;;;8.78;53.80;96982.56;4970886;28;20177;-71
2023/02/17 03:53:12;;;;;;;18.40;13.60;;;;;;;8.74;53.89;96986.16;4970899;28;20244;-70
2023/02/17 03:55:38;;;;;;;19.67;13.60;;;;;;;8.77;52.92;96981.72;4970695;28;20173;-71
2023/02/17 03:58:03;;;;;;;21.20;14.87;;;;;;;8.82;53.46;96985.06;4970682;28;20200;-68
2023/02/17 04:00:29;;;;;;;26.00;15.37;;;;;;;8.89;52.20;96981.38;4970598;28;20207;-69
2023/02/17 04:02:55;;;;;;;22.73;14.67;;;;;;;8.83;53.02;96978.06;4985217;28;20255;-70
2023/02/17 04:05:22;;;;;;;18.47;14.43;;;;;;;8.92;52.87;96980.41;4970466;28;20228;-69
2023/02/17 04:07:47;;;;;;;21.10;13.93;;;;;;;8.85;53.16;96979.72;4970277;28;20431;-68
2023/02/17 04:10:12;;;;;;;20.43;15.53;;;;;;;8.84;52.90;96978.03;4970503;28;20445;-70
2023/02/17 04:12:38;;;;;;;19.33;12.27;;;;;;;8.88;52.07;96987.53;4970618;28;20173;-68
2023/02/17 04:15:04;;;;;;;19.87;14.33;;;;;;;8.85;52.38;96989.34;4970463;28;20669;-69
2023/02/17 04:17:29;;;;;;;20.23;13.47;;;;;;;8.80;52.15;96988.63;4970058;28;20182;-69
2023/02/17 04:19:55;;;;;;;22.60;13.27;;;;;;;8.81;52.27;96982.47;4970415;28;20205;-69
2023/02/17 04:22:20;;;;;;;18.47;12.83;;;;;;;8.78;52.46;96980.78;4970458;28;20200;-67
2023/02/17 04:24:45;;;;;;;20.30;13.57;;;;;;;8.87;52.04;96983.16;4970145;28;20231;-67
2023/02/17 04:27:11;;;;;;;21.70;13.50;;;;;;;8.86;52.79;96981.47;4969836;28;20180;-68
2023/02/17 04:29:36;;;;;;;17.37;12.40;;;;;;;8.90;51.99;96979.59;4969394;28;20746;-67
2023/02/17 04:32:02;;;;;;;23.47;13.60;;;;;;;8.83;52.88;96972.81;4950786;29;20591;-70
2023/02/17 04:34:27;;;;;;;18.23;12.30;;;;;;;8.82;52.74;96977.22;4950931;29;20198;-69
2023/02/17 04:36:53;;;;;;;18.50;13.03;;;;;;;8.85;52.20;96974.50;4950462;29;20191;-70
2023/02/17 04:39:18;;;;;;;16.97;12.67;;;;;;;8.73;52.52;96981.84;4950266;29;20742;-67
2023/02/17 04:41:44;;;;;;;20.73;14.23;;;;;;;8.73;53.61;96981.84;4950606;29;20253;-69
2023/02/17 04:44:09;;;;;;;16.00;12.70;;;;;;;8.80;53.66;96981.63;4950613;29;20664;-68
2023/02/17 04:46:35;;;;;;;18.00;13.50;;;;;;;8.85;53.28;96973.63;4950268;29;20177;-68
2023/02/17 04:49:00;;;;;;;18.57;12.27;;;;;;;8.77;53.66;96980.88;4949981;29;20225;-68
2023/02/17 04:51:25;;;;;;;19.20;12.93;;;;;;;8.73;54.12;96987.06;4950574;29;20193;-68
2023/02/17 04:53:51;;;;;;;18.93;14.23;;;;;;;8.71;53.69;96978.41;4950643;29;21214;-67
2023/02/17 04:56:16;;;;;;;16.60;12.60;;;;;;;8.72;54.20;96982.72;4950158;29;20175;-67
2023/02/17 04:58:42;;;;;;;17.40;12.77;;;;;;;8.74;53.00;96973.06;4950464;29;20202;-70
2023/02/17 05:01:07;;;;;;;17.63;12.60;;;;;;;8.69;53.33;96970.59;4956237;28;20669;-67
2023/02/17 05:03:33;;;;;;;18.30;12.90;;;;;;;8.77;53.33;96978.25;4967989;28;20213;-68
2023/02/17 05:05:58;;;;;;;18.50;12.27;;;;;;;8.73;53.67;96969.59;4967359;28;20192;-68
2023/02/17 05:08:24;;;;;;;15.23;11.77;;;;;;;8.82;52.89;96974.59;4967447;28;20187;-67
2023/02/17 05:10:51;;;;;;;24.30;13.33;;;;;;;8.83;53.35;96967.59;4968329;28;20177;-67
2023/02/17 05:13:17;;;;;;;20.87;12.20;;;;;;;8.82;52.93;96966.75;4982676;28;20177;-67
2023/02/17 05:15:43;;;;;;;19.60;10.80;;;;;;;8.83;52.81;96967.59;4967557;28;20841;-68
2023/02/17 05:18:09;;;;;;;16.23;12.30;;;;;;;8.74;53.80;96960.00;4967568;28;20189;-68
2023/02/17 05:20:34;;;;;;;20.90;11.80;;;;;;;8.81;52.92;96965.03;4967783;28;20479;-68
2023/02/17 05:23:00;;;;;;;17.97;10.30;;;;;;;8.87;52.55;96964.84;4967244;28;20240;-68
2023/02/17 05:25:26;;;;;;;15.10;10.60;;;;;;;8.75;52.86;96967.81;4967553;28;20189;-67
2023/02/17 05:27:51;;;;;;;25.63;12.10;;;;;;;8.89;52.55;96970.06;4967847;28;20215;-68
2023/02/17 05:30:17;;;;;;;15.10;9.87;;;;;;;8.90;52.13;96967.41;4967699;28;20201;-71
2023/02/17 05:32:42;;;;;;;20.10;10.50;;;;;;;8.84;52.70;96967.56;4967615;28;20189;-71
2023/02/17 05:35:08;;;;;;;19.90;11.33;;;;;;;8.92;52.33;96967.34;4966952;28;20189;-71
2023/02/17 05:37:33;;;;;;;16.47;9.80;;;;;;;8.90;52.42;96967.41;4967381;28;20268;-67
2023/02/17 05:39:59;;;;;;;18.17;11.07;;;;;;;8.81;52.23;96974.63;4967605;28;20218;-67
2023/02/17 05:42:27;;;;;;;13.33;10.00;;;;;;;8.85;53.19;96969.25;4967061;28;20224;-68
2023/02/17 05:44:54;;;;;;;15.30;10.13;;;;;;;8.77;53.13;96962.53;4966547;28;20495;-70
2023/02/17 05:47:19;;;;;;;11.60;10.30;;;;;;;8.87;52.22;96966.59;4967745;28;20488;-70
2023/02/17 05:49:45;;;;;;;13.60;9.50;;;;;;;8.86;52.61;96972.75;4966760;28;20452;-71
2023/02/17 05:52:10;;;;;;;14.83;10.00;;;;;;;8.88;52.11;96960.47;4968828;28;20666;-68
2023/02/17 05:54:35;;;;;;;12.33;8.87;;;;;;;8.84;53.11;96964.09;4968920;28;20217;-68
2023/02/17 05:57:01;;;;;;;13.47;9.37;;;;;;;8.88;53.40;96966.56;4968485;28;20184;-71
2023/02/17 05:59:26;;;;;;;19.50;9.07;;;;;;;8.87;52.93;96958.75;4968487;28;20205;-68
2023/02/17 06:01:52;;;;;;;13.57;10.40;;;;;;;8.88;53.13;96963.06;4968490;28;20216;-72
2023/02/17 06:04:17;;;;;;;17.03;9.93;;;;;;;8.90;52.95;96962.16;4968620;28;20256;-69
2023/02/17 06:06:43;;;;;;;17.27;9.83;;;;;;;8.91;53.26;96965.63;4968212;28;20189;-69
2023/02/17 06:09:08;;;;;;;21.40;10.80;;;;;;;8.97;52.15;96959.34;4967406;28;20209;-70
2023/02/17 06:11:33;;;;;;;19.17;10.27;;;;;;;8.92;52.29;96956.88;4964785;28;20205;-70
2023/02/17 06:13:59;;;;;;;18.53;10.70;;;;;;;8.91;52.49;96963.00;4960553;28;20181;-70
2023/02/17 06:16:25;;;;;;;16.10;9.57;;;;;;;8.91;52.62;96963.00;4965732;28;20190;-69
2023/02/17 06:18:50;;;;;;;29.93;10.40;;;;;;;8.86;52.63;96967.53;4966408;28;20468;-70
2023/02/17 06:21:16;;;;;;;13.43;9.50;;;;;;;8.94;52.87;96970.78;4965367;28;20212;-70
2023/02/17 06:23:41;;;;;;;29.13;10.80;;;;;;;8.91;53.47;96976.09;4967038;28;20225;-69
2023/02/17 06:26:06;;;;;;;16.70;9.37;;;;;;;8.98;52.96;96974.19;4963774;28;20185;-70
2023/02/17 06:28:32;;;;;;;14.47;9.50;;;;;;;8.86;53.16;96989.31;4968540;28;21049;-70
2023/02/17 06:30:57;;;;;;;17.03;9.63;;;;;;;8.89;52.91;96986.59;4967158;28;20208;-69
2023/02/17 06:33:23;;;;;;;17.43;8.60;;;;;;;8.88;53.29;96982.28;4969934;28;20190;-69
2023/02/17 06:35:50;;;;;;;19.83;9.93;;;;;;;8.95;53.08;96988.19;4968807;28;20627;-70
2023/02/17 06:38:15;;;;;;;13.30;8.97;;;;;;;8.98;53.25;96988.13;4968265;28;20275;-67
2023/02/17 06:40:41;;;;;;;15.17;9.50;;;;;;;8.94;53.07;96990.84;4966810;28;20959;-68
2023/02/17 06:43:06;;;;;;;18.73;9.40;;;;;;;9.03;52.75;96994.06;4967971;28;20247;-70
2023/02/17 06:45:32;;;;;;;17.53;9.37;;;;;;;8.97;53.13;96991.63;4968407;28;20187;-70
2023/02/17 06:47:57;;;;;;;15.67;8.33;;;;;;;9.01;53.13;96988.03;4968349;28;20178;-71
2023/02/17 06:50:23;;;;;;;10.77;8.73;;;;;;;9.03;53.23;96988.84;4968254;28;20225;-71
2023/02/17 06:52:48;;;;;;;14.80;9.23;;;;;;;9.08;52.62;96986.09;4967612;28;20209;-72
2023/02/17 06:55:14;;;;;;;13.23;8.20;;;;;;;9.00;53.73;96999.41;4968283;28;20538;-70
2023/02/17 06:57:39;;;;;;;27.50;9.67;;;;;;;9.05;53.78;97004.50;4967375;28;20201;-68
2023/02/17 07:00:05;;;;;;;18.83;9.03;;;;;;;9.07;53.81;97003.56;4967478;28;20592;-71
2023/02/17 07:02:31;;;;;;;16.03;9.20;;;;;;;9.11;53.81;97005.16;4968050;28;20188;-69
2023/02/17 07:04:56;;;;;;;14.87;9.00;;;;;;;9.15;53.30;96997.25;4967633;28;20464;-68
2023/02/17 07:07:22;;;;;;;12.13;8.80;;;;;;;9.20;53.18;97001.44;4967014;28;20192;-67
2023/02/17 07:09:47;;;;;;;13.80;8.30;;;;;;;9.30;53.84;96983.69;4968029;28;20308;-70
2023/02/17 07:12:12;;;;;;;33.10;11.40;;;;;;;9.38;52.72;96994.81;4967560;28;20213;-69
2023/02/17 07:14:38;;;;;;;30.90;11.93;;;;;;;9.63;52.91;96987.06;4967959;28;20612;-69
2023/02/17 07:17:04;;;;;;;12.93;9.37;;;;;;;9.57;52.36;96983.75;4967184;28;20196;-67
2023/02/17 07:19:29;;;;;;;21.50;9.43;;;;;;;9.41;53.27;96991.25;4967807;28;20232;-70
2023/02/17 07:21:55;;;;;;;21.00;9.07;;;;;;;9.40;53.83;96985.16;4965875;28;20701;-69
2023/02/17 07:24:20;;;;;;;13.53;8.07;;;;;;;9.38;53.54;96989.59;4965990;28;20201;-69
2023/02/17 07:26:47;;;;;;;12.10;8.47;;;;;;;9.31;54.10;96995.91;4966761;28;20689;-68
2023/02/17 07:29:13;;;;;;;12.90;8.77;;;;;;;9.37;53.97;96997.47;4971203;28;20197;-70
2023/02/17 07:31:38;;;;;;;14.53;9.37;;;;;;;9.30;54.50;96995.03;4971394;28;20435;-69
2023/02/17 07:34:04;;;;;;;14.27;8.90;;;;;;;9.40;54.31;97008.75;4971578;28;20255;-69
2023/02/17 07:36:30;;;;;;;18.13;8.20;;;;;;;9.38;53.89;97005.31;4970626;28;20201;-68
2023/02/17 07:38:56;;;;;;;15.30;8.73;;;;;;;9.42;54.52;97003.44;4969883;28;20957;-70
2023/02/17 07:41:23;;;;;;;13.37;8.50;;;;;;;9.47;54.25;96998.91;4970695;28;20814;-67
2023/02/17 07:43:53;;;;;;;12.43;8.30;;;;;;;9.52;53.75;97004.91;4970498;28;20249;-67
2023/02/17 07:46:19;;;;;;;14.57;9.27;;;;;;;9.60;53.85;97010.75;4969454;28;20435;-67
2023/02/17 07:48:45;;;;;;;11.47;8.73;;;;;;;9.62;53.80;97013.34;4970363;28;20441;-69
2023/02/17 07:51:13;;;;;;;12.33;8.20;;;;;;;9.65;53.77;97008.00;4970523;28;20181;-69
2023/02/17 07:53:39;;;;;;;27.00;9.33;;;;;;;9.69;53.52;97010.47;4969822;28;20452;-68
2023/02/17 07:56:07;;;;;;;14.33;7.80;;;;;;;9.74;53.71;97011.19;4970342;28;20903;-70
2023/02/17 07:58:34;;;;;;;11.30;8.10;;;;;;;9.79;53.79;97013.66;4970134;28;20181;-72
2023/02/17 08:01:07;;;;;;;12.23;7.67;;;;;;;9.89;52.93;97003.75;4969524;28;20428;-68
2023/02/17 08:03:33;;;;;;;11.60;7.93;;;;;;;9.89;52.86;97004.59;4970068;28;20544;-72
2023/02/17 08:05:58;;;;;;;12.93;8.40;;;;;;;10.01;52.65;97013.00;4970339;28;20511;-71
2023/02/17 08:13:56;;;;;;;14.50;8.47;;;;;;;11.11;49.76;96992.66;4967128;28;20469;-68
2023/02/17 08:16:22;;;;;;;15.80;8.10;;;;;;;11.16;49.59;96995.97;4952308;28;20430;-70
2023/02/17 08:18:47;;;;;;;9.97;7.77;;;;;;;10.99;49.93;96997.44;4951448;29;20197;-70
2023/02/17 08:21:12;;;;;;;12.93;7.67;;;;;;;10.84;50.71;97003.22;4950945;28;20217;-70
2023/02/17 08:23:38;;;;;;;9.70;7.03;;;;;;;10.77;50.88;96996.47;4965137;28;20293;-70
2023/02/17 08:26:04;;;;;;;11.93;7.37;;;;;;;10.75;50.82;97001.78;4953023;28;20177;-71
2023/02/17 08:28:29;;;;;;;15.30;8.37;;;;;;;10.70;51.11;97011.59;4969867;28;20965;-69
2023/02/17 08:30:54;;;;;;;12.80;7.70;;;;;;;10.81;51.29;97005.97;4958658;28;20213;-70
2023/02/17 08:33:20;;;;;;;11.67;7.50;;;;;;;11.11;49.97;97016.31;4951924;28;20201;-68
2023/02/17 08:35:45;;;;;;;29.10;9.57;;;;;;;11.29;49.94;97012.13;4967344;28;20193;-69
2023/02/17 08:38:11;;;;;;;12.20;9.30;;;;;;;11.44;49.75;97019.47;4968774;28;20192;-69
2023/02/17 08:40:37;;;;;;;18.60;7.87;;;;;;;12.40;46.74;97011.31;4969332;28;20201;-70
2023/02/17 08:43:02;;;;;;;16.33;7.10;;;;;;;12.88;45.21;97020.72;4969905;28;20189;-72
2023/02/17 08:45:29;;;;;;;24.10;10.27;;;;;;;13.46;45.18;97019.94;4969689;28;20233;-70
2023/02/17 08:47:54;;;;;;;13.57;7.20;;;;;;;13.76;43.77;97017.69;4968646;28;20185;-69
2023/02/17 08:50:20;;;;;;;20.17;7.20;;;;;;;14.20;42.94;97014.72;4969540;28;21111;-70
2023/02/17 08:52:46;;;;;;;13.33;7.33;;;;;;;13.97;42.99;97014.03;4969176;28;20174;-70
2023/02/17 08:55:12;;;;;;;13.73;8.20;;;;;;;13.47;45.20;97013.78;4968674;28;20206;-69
2023/02/17 08:57:37;;;;;;;16.30;7.63;;;;;;;13.29;45.43;97021.56;4967232;28;20190;-70
2023/02/17 09:00:06;;;;;;;16.73;6.50;;;;;;;13.39;45.29;97022.00;4968467;28;20441;-72
2023/02/17 09:02:32;;;;;;;10.27;8.17;;;;;;;13.57;45.38;97001.00;4966153;28;20189;-71
2023/02/17 09:04:57;;;;;;;10.20;7.10;;;;;;;13.54;45.50;97010.78;4969293;28;20456;-71
2023/02/17 09:07:22;;;;;;;7.17;5.90;;;;;;;13.46;45.13;97012.03;4968070;28;20544;-71
2023/02/17 09:09:48;;;;;;;10.33;6.80;;;;;;;13.26;45.96;97016.41;4976434;28;20622;-72
2023/02/17 09:12:13;;;;;;;10.53;5.97;;;;;;;12.95;46.78;97009.00;4969718;28;20185;-68
2023/02/17 09:14:39;;;;;;;10.90;6.17;;;;;;;13.19;46.55;97014.97;4969773;28;20280;-69
2023/02/17 09:17:04;;;;;;;8.03;6.40;;;;;;;13.58;45.95;97015.91;4969704;28;20504;-69
2023/02/17 09:19:30;;;;;;;8.90;6.10;;;;;;;13.55;46.45;97004.56;4968362;28;20204;-70
2023/02/17 09:21:55;;;;;;;7.90;5.70;;;;;;;13.79;45.38;97006.13;4968135;28;20276;-68
2023/02/17 09:24:21;;;;;;;10.67;5.33;;;;;;;13.87;45.95;97017.19;4968933;28;20375;-70
2023/02/17 09:26:46;;;;;;;8.00;6.83;;;;;;;13.94;45.79;97011.56;4968781;28;20297;-68
2023/02/17 09:29:11;;;;;;;7.03;5.93;;;;;;;13.57;46.56;97008.94;4968388;28;20209;-69
2023/02/17 09:31:37;;;;;;;8.97;6.50;;;;;;;13.54;46.68;97007.28;4965451;28;20189;-71
2023/02/17 09:34:03;;;;;;;7.83;5.60;;;;;;;13.55;47.36;97022.16;4968901;28;20773;-70
2023/02/17 09:36:32;;;;;;;11.80;7.17;;;;;;;13.57;46.68;97016.84;4967117;28;20305;-71
2023/02/17 09:38:58;;;;;;;8.20;6.20;;;;;;;13.51;47.08;97021.47;4967819;28;20468;-71
2023/02/17 09:41:42;;;;;;;15.63;6.27;;;;;;;13.67;46.52;97013.69;4968782;28;20437;-69
2023/02/17 09:44:38;;;;;;;20.23;6.87;;;;;;;13.70;46.77;97010.94;4968886;28;20583;-70
2023/02/17 09:47:09;;;;;;;11.17;5.97;;;;;;;13.55;47.11;97006.34;4967842;28;20445;-72
2023/02/17 09:49:50;;;;;;;16.13;6.17;;;;;;;13.37;47.18;97017.72;4968705;28;20493;-70
2023/02/17 09:52:25;;;;;;;12.87;7.00;;;;;;;13.42;47.37;97016.63;4968601;28;20474;-70
2023/02/17 09:55:14;;;;;;;28.23;8.93;;;;;;;13.25;47.96;97024.38;4969179;28;20870;-68
2023/02/17 09:57:50;;;;;;;15.30;5.93;;;;;;;13.18;48.79;97023.81;4967894;28;20440;-73
2023/02/17 10:00:23;;;;;;;12.93;6.30;;;;;;;13.06;48.31;97022.56;4964170;28;20815;-71
2023/02/17 10:03:17;;;;;;;12.70;6.30;;;;;;;13.07;48.91;97023.44;4968812;28;20447;-69
2023/02/17 10:06:03;;;;;;;11.70;6.63;;;;;;;12.84;49.89;97035.78;4975317;28;20445;-71
2023/02/17 10:08:40;;;;;;;11.83;6.13;;;;;;;12.64;50.37;97028.75;4968275;28;20832;-68
2023/02/17 10:11:30;;;;;;;11.93;5.63;;;;;;;12.64;50.97;97027.91;4967398;28;20421;-68
2023/02/17 10:14:01;;;;;;;7.23;5.63;;;;;;;12.68;49.70;97022.44;4962224;28;20421;-68
2023/02/17 10:16:37;;;;;;;12.30;5.70;;;;;;;12.65;50.32;97011.16;4968056;28;20413;-70
2023/02/17 10:19:17;;;;;;;8.67;5.10;;;;;;;12.78;50.78;97009.75;4966627;28;20895;-69
2023/02/17 10:21:55;;;;;;;10.17;5.20;;;;;;;12.76;51.13;97016.00;4968485;28;20420;-69
2023/02/17 10:24:21;;;;;;;11.10;5.40;;;;;;;12.65;51.03;97014.66;4967097;28;20899;-69
2023/02/17 10:27:24;;;;;;;9.10;5.20;;;;;;;12.63;51.73;97018.28;4966269;28;20452;-70
2023/02/17 10:30:14;;;;;;;18.77;6.80;;;;;;;12.56;51.14;97030.84;4960866;28;20211;-69
2023/02/17 10:33:11;;;;;;;12.43;6.50;;;;;;;12.50;52.15;97024.06;4967329;28;21120;-69
2023/02/17 10:36:27;;;;;;;10.73;5.50;;;;;;;12.40;52.12;97029.75;4966717;28;20456;-69
2023/02/17 10:39:00;;;;;;;7.50;5.33;;;;;;;12.40;52.52;97030.63;4978285;28;20551;-69
2023/02/17 10:41:33;;;;;;;10.67;4.87;;;;;;;12.37;52.90;97025.47;4966747;28;20479;-69
2023/02/17 10:44:01;;;;;;;10.70;5.00;;;;;;;12.37;52.89;97027.25;4968079;28;20475;-68
2023/02/17 10:46:29;;;;;;;13.23;6.10;;;;;;;12.34;54.22;97035.28;4967911;28;20419;-69
2023/02/17 10:48:56;;;;;;;11.00;5.10;;;;;;;12.31;55.59;97040.66;4967496;28;21034;-68
2023/02/17 10:51:29;;;;;;;8.47;5.77;;;;;;;12.32;55.54;97022.19;4966402;28;20456;-69
2023/02/17 10:54:20;;;;;;;5.03;4.40;;;;;;;12.25;55.71;97023.34;4968058;28;20406;-69
2023/02/17 10:56:51;;;;;;;7.70;5.47;;;;;;;12.28;57.02;97026.72;4967853;28;20496;-70
2023/02/17 10:59:22;;;;;;;12.70;5.93;;;;;;;12.29;56.87;97020.53;4967567;28;20429;-67
2023/02/17 11:01:48;;;;;;;7.37;6.00;;;;;;;12.39;57.03;97028.91;4968686;28;20474;-70
2023/02/17 11:04:13;;;;;;;13.47;5.80;;;;;;;12.45;56.87;97026.03;4970700;28;20456;-68
2023/02/17 11:06:47;;;;;;;14.23;6.60;;;;;;;12.40;57.50;97019.22;4970390;28;20288;-70
2023/02/17 11:09:30;;;;;;;19.47;7.17;;;;;;;12.48;56.72;97020.63;4971636;28;21041;-69
2023/02/17 11:12:00;;;;;;;13.37;5.00;;;;;;;12.57;56.96;97023.81;4970828;28;20447;-69
2023/02/17 11:14:30;;;;;;;11.83;5.17;;;;;;;12.63;56.62;97013.84;4971392;28;20904;-69
2023/02/17 11:17:02;;;;;;;7.13;4.70;;;;;;;12.64;56.63;97009.47;4970441;28;20531;-69
2023/02/17 11:19:32;;;;;;;8.53;4.70;;;;;;;12.88;55.71;97021.59;4973663;28;20559;-70
2023/02/17 11:21:59;;;;;;;8.33;5.63;;;;;;;12.97;54.91;97007.16;4970996;28;20455;-68
2023/02/17 11:24:26;;;;;;;10.13;5.40;;;;;;;13.00;55.20;97008.81;4969385;28;20471;-70
2023/02/17 11:27:00;;;;;;;7.70;5.10;;;;;;;13.05;54.21;97001.56;4969010;28;20914;-69
2023/02/17 11:29:26;;;;;;;5.70;4.30;;;;;;;12.87;54.44;97008.47;4970958;28;20491;-70
2023/02/17 11:32:07;;;;;;;7.33;4.43;;;;;;;12.79;55.10;97006.16;4951818;28;20421;-69
2023/02/17 11:34:36;;;;;;;5.83;4.50;;;;;;;12.73;55.04;97001.16;4951418;28;20540;-70
2023/02/17 11:37:10;;;;;;;10.50;5.27;;;;;;;12.80;54.71;96999.97;4951182;29;20410;-69
2023/02/17 11:39:42;;;;;;;7.00;5.03;;;;;;;12.79;54.56;97002.69;4951136;28;20453;-69